sensor_id;sensor_type;location;lat;lon;timestamp;temperature;humidity
13848;DHT22;6994;49.752;6.094;2023-04-01T00:00:17;10.40;99.90
13848;DHT22;6994;49.752;6.094;2023-04-01T00:02:44;10.30;99.90
13848;DHT22;6994;49.752;6.094;2023-04-01T00:05:12;10.30;99.90
13848;DHT22;6994;49.752;6.094;2023-04-01T00:07:39;10.30;99.90
13848;DHT22;6994;49.752;6.094;2023-04-01T00:10:07;10.30;99.90
13848;DHT22;6994;49.752;6.094;2023-04-01T00:12:34;10.30;99.90
13848;DHT22;6994;49.752;6.094;2023-04-01T00:15:02;10.50;99.90
13848;DHT22;6994;49.752;6.094;2023-04-01T00:17:29;10.50;99.90
13848;DHT22;6994;49.752;6.094;2023-04-01T00:19:56;10.60;99.90
13848;DHT22;6994;49.752;6.094;2023-04-01T00:22:24;10.60;99.90
13848;DHT22;6994;49.752;6.094;2023-04-01T00:24:50;10.70;99.90
13848;DHT22;6994;49.752;6.094;2023-04-01T00:27:18;10.70;99.90
13848;DHT22;6994;49.752;6.094;2023-04-01T00:29:45;10.70;99.90
13848;DHT22;6994;49.752;6.094;2023-04-01T00:32:12;10.70;99.90
13848;DHT22;6994;49.752;6.094;2023-04-01T00:34:39;10.60;99.90
13848;DHT22;6994;49.752;6.094;2023-04-01T00:37:07;10.60;99.90
13848;DHT22;6994;49.752;6.094;2023-04-01T00:39:35;10.50;99.90
13848;DHT22;6994;49.752;6.094;2023-04-01T00:42:03;10.50;99.90
13848;DHT22;6994;49.752;6.094;2023-04-01T00:44:33;10.40;99.90
13848;DHT22;6994;49.752;6.094;2023-04-01T00:46:59;10.40;99.90
13848;DHT22;6994;49.752;6.094;2023-04-01T00:49:29;10.40;99.90
13848;DHT22;6994;49.752;6.094;2023-04-01T00:51:53;10.40;99.90
13848;DHT22;6994;49.752;6.094;2023-04-01T00:54:20;10.40;99.90
13848;DHT22;6994;49.752;6.094;2023-04-01T00:56:54;10.50;99.90
13848;DHT22;6994;49.752;6.094;2023-04-01T00:59:19;10.50;99.90
13848;DHT22;6994;49.752;6.094;2023-04-01T01:01:44;10.60;99.90
13848;DHT22;6994;49.752;6.094;2023-04-01T01:04:27;10.60;99.90
13848;DHT22;6994;49.752;6.094;2023-04-01T01:09:35;10.20;99.90
13848;DHT22;6994;49.752;6.094;2023-04-01T01:12:10;10.20;99.90
13848;DHT22;6994;49.752;6.094;2023-04-01T01:14:55;10.10;99.90
13848;DHT22;6994;49.752;6.094;2023-04-01T01:17:29;9.90;99.90
13848;DHT22;6994;49.752;6.094;2023-04-01T01:20:17;9.70;99.90
13848;DHT22;6994;49.752;6.094;2023-04-01T01:22:32;9.60;99.90
13848;DHT22;6994;49.752;6.094;2023-04-01T01:27:37;9.20;99.90
13848;DHT22;6994;49.752;6.094;2023-04-01T01:32:59;9.10;99.90
13848;DHT22;6994;49.752;6.094;2023-04-01T01:35:55;8.90;99.90
13848;DHT22;6994;49.752;6.094;2023-04-01T01:38:19;8.90;99.90
13848;DHT22;6994;49.752;6.094;2023-04-01T01:40:48;8.90;99.90
13848;DHT22;6994;49.752;6.094;2023-04-01T01:43:14;8.80;99.90
13848;DHT22;6994;49.752;6.094;2023-04-01T01:45:41;8.80;99.90
13848;DHT22;6994;49.752;6.094;2023-04-01T01:48:07;8.80;99.90
13848;DHT22;6994;49.752;6.094;2023-04-01T01:50:34;8.80;99.90
13848;DHT22;6994;49.752;6.094;2023-04-01T01:53:05;8.80;99.90
13848;DHT22;6994;49.752;6.094;2023-04-01T01:55:33;8.80;99.90
13848;DHT22;6994;49.752;6.094;2023-04-01T01:57:59;8.80;99.90
13848;DHT22;6994;49.752;6.094;2023-04-01T02:00:26;8.90;99.90
13848;DHT22;6994;49.752;6.094;2023-04-01T02:02:53;9.00;99.90
13848;DHT22;6994;49.752;6.094;2023-04-01T02:05:24;9.00;99.90
13848;DHT22;6994;49.752;6.094;2023-04-01T02:08:05;8.90;99.90
13848;DHT22;6994;49.752;6.094;2023-04-01T02:10:26;8.90;99.90
13848;DHT22;6994;49.752;6.094;2023-04-01T02:12:55;8.90;99.90
13848;DHT22;6994;49.752;6.094;2023-04-01T02:15:21;8.80;99.90
13848;DHT22;6994;49.752;6.094;2023-04-01T02:17:48;8.80;99.90
13848;DHT22;6994;49.752;6.094;2023-04-01T02:20:16;8.70;99.90
13848;DHT22;6994;49.752;6.094;2023-04-01T02:22:49;8.70;99.90
13848;DHT22;6994;49.752;6.094;2023-04-01T02:25:22;8.70;99.90
13848;DHT22;6994;49.752;6.094;2023-04-01T02:27:46;8.70;99.90
13848;DHT22;6994;49.752;6.094;2023-04-01T02:30:14;8.70;99.90
13848;DHT22;6994;49.752;6.094;2023-04-01T02:32:40;8.70;99.90
13848;DHT22;6994;49.752;6.094;2023-04-01T02:35:11;8.70;99.90
13848;DHT22;6994;49.752;6.094;2023-04-01T02:37:38;8.70;99.90
13848;DHT22;6994;49.752;6.094;2023-04-01T02:40:05;8.70;99.90
13848;DHT22;6994;49.752;6.094;2023-04-01T02:42:32;8.70;99.90
13848;DHT22;6994;49.752;6.094;2023-04-01T02:45:00;8.70;99.90
13848;DHT22;6994;49.752;6.094;2023-04-01T02:47:28;8.70;99.90
13848;DHT22;6994;49.752;6.094;2023-04-01T02:49:56;8.70;99.90
13848;DHT22;6994;49.752;6.094;2023-04-01T02:52:24;8.70;99.90
13848;DHT22;6994;49.752;6.094;2023-04-01T02:54:52;8.70;99.90
13848;DHT22;6994;49.752;6.094;2023-04-01T02:57:20;8.70;99.90
13848;DHT22;6994;49.752;6.094;2023-04-01T02:59:48;8.70;99.90
13848;DHT22;6994;49.752;6.094;2023-04-01T03:02:15;8.70;99.90
13848;DHT22;6994;49.752;6.094;2023-04-01T03:04:42;8.70;99.90
13848;DHT22;6994;49.752;6.094;2023-04-01T03:07:10;8.70;99.90
13848;DHT22;6994;49.752;6.094;2023-04-01T03:09:37;8.70;99.90
13848;DHT22;6994;49.752;6.094;2023-04-01T03:12:05;8.70;99.90
13848;DHT22;6994;49.752;6.094;2023-04-01T03:14:33;8.70;99.90
13848;DHT22;6994;49.752;6.094;2023-04-01T03:17:01;8.70;99.90
13848;DHT22;6994;49.752;6.094;2023-04-01T03:19:28;8.60;99.90
13848;DHT22;6994;49.752;6.094;2023-04-01T03:21:55;8.70;99.90
13848;DHT22;6994;49.752;6.094;2023-04-01T03:24:23;8.70;99.90
13848;DHT22;6994;49.752;6.094;2023-04-01T03:26:51;8.70;99.90
13848;DHT22;6994;49.752;6.094;2023-04-01T03:29:19;8.70;99.90
13848;DHT22;6994;49.752;6.094;2023-04-01T03:31:47;8.70;99.90
13848;DHT22;6994;49.752;6.094;2023-04-01T03:34:15;8.70;99.90
13848;DHT22;6994;49.752;6.094;2023-04-01T03:36:42;8.70;99.90
13848;DHT22;6994;49.752;6.094;2023-04-01T03:39:09;8.70;99.90
13848;DHT22;6994;49.752;6.094;2023-04-01T03:41:37;8.70;99.90
13848;DHT22;6994;49.752;6.094;2023-04-01T03:44:05;8.70;99.90
13848;DHT22;6994;49.752;6.094;2023-04-01T03:46:32;8.70;99.90
13848;DHT22;6994;49.752;6.094;2023-04-01T03:49:00;8.70;99.90
13848;DHT22;6994;49.752;6.094;2023-04-01T03:51:27;8.70;99.90
13848;DHT22;6994;49.752;6.094;2023-04-01T03:53:55;8.70;99.90
13848;DHT22;6994;49.752;6.094;2023-04-01T03:56:22;8.70;99.90
13848;DHT22;6994;49.752;6.094;2023-04-01T03:58:50;8.70;99.90
13848;DHT22;6994;49.752;6.094;2023-04-01T04:01:19;8.70;99.90
13848;DHT22;6994;49.752;6.094;2023-04-01T04:03:45;8.70;99.90
13848;DHT22;6994;49.752;6.094;2023-04-01T04:06:16;8.70;99.90
13848;DHT22;6994;49.752;6.094;2023-04-01T04:08:42;8.70;99.90
13848;DHT22;6994;49.752;6.094;2023-04-01T04:11:10;8.70;99.90
13848;DHT22;6994;49.752;6.094;2023-04-01T04:13:37;8.90;99.90
13848;DHT22;6994;49.752;6.094;2023-04-01T04:16:04;8.90;99.90
13848;DHT22;6994;49.752;6.094;2023-04-01T04:18:32;8.90;99.90
13848;DHT22;6994;49.752;6.094;2023-04-01T04:20:58;8.90;99.90
13848;DHT22;6994;49.752;6.094;2023-04-01T04:23:26;8.90;99.90
13848;DHT22;6994;49.752;6.094;2023-04-01T04:26:00;8.90;99.90
13848;DHT22;6994;49.752;6.094;2023-04-01T04:28:23;8.90;99.90
13848;DHT22;6994;49.752;6.094;2023-04-01T04:30:50;8.90;99.90
13848;DHT22;6994;49.752;6.094;2023-04-01T04:33:17;8.90;99.90
13848;DHT22;6994;49.752;6.094;2023-04-01T04:35:44;8.80;99.90
13848;DHT22;6994;49.752;6.094;2023-04-01T04:38:12;8.80;99.90
13848;DHT22;6994;49.752;6.094;2023-04-01T04:40:39;9.00;99.90
13848;DHT22;6994;49.752;6.094;2023-04-01T04:43:06;9.10;99.90
13848;DHT22;6994;49.752;6.094;2023-04-01T04:45:33;9.10;99.90
13848;DHT22;6994;49.752;6.094;2023-04-01T04:48:00;9.00;99.90
13848;DHT22;6994;49.752;6.094;2023-04-01T04:50:28;9.00;99.90
13848;DHT22;6994;49.752;6.094;2023-04-01T04:52:55;9.00;99.90
13848;DHT22;6994;49.752;6.094;2023-04-01T04:55:22;9.00;99.90
13848;DHT22;6994;49.752;6.094;2023-04-01T04:57:49;9.00;99.90
13848;DHT22;6994;49.752;6.094;2023-04-01T05:00:18;9.10;99.90
13848;DHT22;6994;49.752;6.094;2023-04-01T05:02:45;9.20;99.90
13848;DHT22;6994;49.752;6.094;2023-04-01T05:05:12;9.30;99.90
13848;DHT22;6994;49.752;6.094;2023-04-01T05:07:39;9.50;99.90
13848;DHT22;6994;49.752;6.094;2023-04-01T05:10:07;9.70;99.90
13848;DHT22;6994;49.752;6.094;2023-04-01T05:12:35;9.70;99.90
13848;DHT22;6994;49.752;6.094;2023-04-01T05:15:04;9.60;99.90
13848;DHT22;6994;49.752;6.094;2023-04-01T05:17:31;9.60;99.90
13848;DHT22;6994;49.752;6.094;2023-04-01T05:19:58;9.60;99.90
13848;DHT22;6994;49.752;6.094;2023-04-01T05:22:25;9.50;99.90
13848;DHT22;6994;49.752;6.094;2023-04-01T05:24:53;9.40;99.90
13848;DHT22;6994;49.752;6.094;2023-04-01T05:27:20;9.30;99.90
13848;DHT22;6994;49.752;6.094;2023-04-01T05:29:47;9.30;99.90
13848;DHT22;6994;49.752;6.094;2023-04-01T05:32:15;9.20;99.90
13848;DHT22;6994;49.752;6.094;2023-04-01T05:34:43;9.20;99.90
13848;DHT22;6994;49.752;6.094;2023-04-01T05:37:11;9.20;99.90
13848;DHT22;6994;49.752;6.094;2023-04-01T05:39:39;9.10;99.90
13848;DHT22;6994;49.752;6.094;2023-04-01T05:42:06;9.10;99.90
13848;DHT22;6994;49.752;6.094;2023-04-01T05:44:34;9.20;99.90
13848;DHT22;6994;49.752;6.094;2023-04-01T05:47:02;9.20;99.90
13848;DHT22;6994;49.752;6.094;2023-04-01T05:49:30;9.20;99.90
13848;DHT22;6994;49.752;6.094;2023-04-01T05:51:57;9.20;99.90
13848;DHT22;6994;49.752;6.094;2023-04-01T05:54:24;9.20;99.90
13848;DHT22;6994;49.752;6.094;2023-04-01T05:56:52;9.20;99.90
13848;DHT22;6994;49.752;6.094;2023-04-01T05:59:19;9.20;99.90
13848;DHT22;6994;49.752;6.094;2023-04-01T06:01:46;9.20;99.90
13848;DHT22;6994;49.752;6.094;2023-04-01T06:04:15;9.30;99.90
13848;DHT22;6994;49.752;6.094;2023-04-01T06:06:41;9.20;99.90
13848;DHT22;6994;49.752;6.094;2023-04-01T06:09:15;9.30;99.90
13848;DHT22;6994;49.752;6.094;2023-04-01T06:20:11;9.30;99.90
13848;DHT22;6994;49.752;6.094;2023-04-01T06:30:43;9.40;99.90
13848;DHT22;6994;49.752;6.094;2023-04-01T06:33:17;9.40;99.90
13848;DHT22;6994;49.752;6.094;2023-04-01T06:36:02;9.70;99.90
13848;DHT22;6994;49.752;6.094;2023-04-01T06:41:36;9.70;99.90
13848;DHT22;6994;49.752;6.094;2023-04-01T06:47:14;9.70;99.90
13848;DHT22;6994;49.752;6.094;2023-04-01T06:49:44;9.70;99.90
13848;DHT22;6994;49.752;6.094;2023-04-01T06:55:01;9.70;99.90
13848;DHT22;6994;49.752;6.094;2023-04-01T06:57:41;9.70;99.90
13848;DHT22;6994;49.752;6.094;2023-04-01T07:00:14;9.70;99.90
13848;DHT22;6994;49.752;6.094;2023-04-01T07:03:13;9.70;99.90
13848;DHT22;6994;49.752;6.094;2023-04-01T07:05:32;9.70;99.90
13848;DHT22;6994;49.752;6.094;2023-04-01T07:08:01;9.70;99.90
13848;DHT22;6994;49.752;6.094;2023-04-01T07:13:22;9.80;99.90
13848;DHT22;6994;49.752;6.094;2023-04-01T07:16:03;9.80;99.90
13848;DHT22;6994;49.752;6.094;2023-04-01T07:18:42;9.80;99.90
13848;DHT22;6994;49.752;6.094;2023-04-01T07:21:08;9.80;99.90
13848;DHT22;6994;49.752;6.094;2023-04-01T07:23:36;9.90;99.90
13848;DHT22;6994;49.752;6.094;2023-04-01T07:26:01;9.90;99.90
13848;DHT22;6994;49.752;6.094;2023-04-01T07:28:29;9.90;99.90
13848;DHT22;6994;49.752;6.094;2023-04-01T07:34:03;9.90;99.90
13848;DHT22;6994;49.752;6.094;2023-04-01T07:36:20;9.90;99.90
13848;DHT22;6994;49.752;6.094;2023-04-01T07:38:56;9.90;99.90
13848;DHT22;6994;49.752;6.094;2023-04-01T07:41:44;9.90;99.90
13848;DHT22;6994;49.752;6.094;2023-04-01T07:52:08;10.00;99.90
13848;DHT22;6994;49.752;6.094;2023-04-01T07:54:48;10.00;99.90
13848;DHT22;6994;49.752;6.094;2023-04-01T07:57:22;10.00;99.90
13848;DHT22;6994;49.752;6.094;2023-04-01T08:02:47;10.40;99.90
13848;DHT22;6994;49.752;6.094;2023-04-01T08:05:29;10.60;99.90
13848;DHT22;6994;49.752;6.094;2023-04-01T08:08:12;10.50;99.90
13848;DHT22;6994;49.752;6.094;2023-04-01T08:11:02;10.50;99.90
13848;DHT22;6994;49.752;6.094;2023-04-01T08:16:22;10.30;99.90
13848;DHT22;6994;49.752;6.094;2023-04-01T08:21:42;10.20;99.90
13848;DHT22;6994;49.752;6.094;2023-04-01T08:26:53;10.70;99.90
13848;DHT22;6994;49.752;6.094;2023-04-01T08:29:27;10.70;99.90
13848;DHT22;6994;49.752;6.094;2023-04-01T08:31:57;10.70;99.90
13848;DHT22;6994;49.752;6.094;2023-04-01T08:34:26;10.70;99.90
13848;DHT22;6994;49.752;6.094;2023-04-01T08:36:53;10.90;99.90
13848;DHT22;6994;49.752;6.094;2023-04-01T08:39:30;10.90;99.90
13848;DHT22;6994;49.752;6.094;2023-04-01T08:42:09;10.90;99.90
13848;DHT22;6994;49.752;6.094;2023-04-01T08:44:57;10.80;99.90
13848;DHT22;6994;49.752;6.094;2023-04-01T08:50:44;10.70;99.90
13848;DHT22;6994;49.752;6.094;2023-04-01T08:53:27;10.70;99.90
13848;DHT22;6994;49.752;6.094;2023-04-01T08:56:18;11.00;99.90
13848;DHT22;6994;49.752;6.094;2023-04-01T08:59:04;10.90;99.90
13848;DHT22;6994;49.752;6.094;2023-04-01T09:10:07;11.60;99.90
13848;DHT22;6994;49.752;6.094;2023-04-01T09:21:05;11.80;99.90
13848;DHT22;6994;49.752;6.094;2023-04-01T09:32:22;11.80;99.90
13848;DHT22;6994;49.752;6.094;2023-04-01T09:37:25;11.70;99.90
13848;DHT22;6994;49.752;6.094;2023-04-01T09:40:03;11.70;99.90
13848;DHT22;6994;49.752;6.094;2023-04-01T09:42:50;11.70;99.90
13848;DHT22;6994;49.752;6.094;2023-04-01T10:04:56;11.30;99.90
13848;DHT22;6994;49.752;6.094;2023-04-01T10:12:37;11.30;99.90
13848;DHT22;6994;49.752;6.094;2023-04-01T10:26:36;11.80;99.90
13848;DHT22;6994;49.752;6.094;2023-04-01T10:34:34;12.20;99.90
13848;DHT22;6994;49.752;6.094;2023-04-01T10:37:06;12.10;99.90
13848;DHT22;6994;49.752;6.094;2023-04-01T10:39:45;12.10;99.90
13848;DHT22;6994;49.752;6.094;2023-04-01T10:53:05;11.90;99.90
13848;DHT22;6994;49.752;6.094;2023-04-01T10:58:23;11.90;99.90
13848;DHT22;6994;49.752;6.094;2023-04-01T11:03:52;11.90;99.90
13848;DHT22;6994;49.752;6.094;2023-04-01T11:22:50;11.70;99.90
13848;DHT22;6994;49.752;6.094;2023-04-01T11:34:01;11.40;99.90
13848;DHT22;6994;49.752;6.094;2023-04-01T11:36:46;11.50;99.90
13848;DHT22;6994;49.752;6.094;2023-04-01T11:41:47;11.80;99.90
13848;DHT22;6994;49.752;6.094;2023-04-01T11:46:52;11.80;99.90
13848;DHT22;6994;49.752;6.094;2023-04-01T11:49:40;11.80;99.90
13848;DHT22;6994;49.752;6.094;2023-04-01T11:52:15;11.80;99.90
13848;DHT22;6994;49.752;6.094;2023-04-01T11:54:59;12.00;99.90
13848;DHT22;6994;49.752;6.094;2023-04-01T12:00:41;12.30;99.90
13848;DHT22;6994;49.752;6.094;2023-04-01T12:03:29;12.30;99.90
13848;DHT22;6994;49.752;6.094;2023-04-01T12:11:16;12.70;99.90
13848;DHT22;6994;49.752;6.094;2023-04-01T12:16:41;13.30;99.90
13848;DHT22;6994;49.752;6.094;2023-04-01T12:19:15;13.50;99.90
13848;DHT22;6994;49.752;6.094;2023-04-01T12:26:59;13.50;99.90
13848;DHT22;6994;49.752;6.094;2023-04-01T12:29:48;13.50;99.90
13848;DHT22;6994;49.752;6.094;2023-04-01T12:32:31;13.60;99.90
13848;DHT22;6994;49.752;6.094;2023-04-01T12:35:12;13.80;99.90
13848;DHT22;6994;49.752;6.094;2023-04-01T12:37:37;14.00;99.90
13848;DHT22;6994;49.752;6.094;2023-04-01T12:42:38;14.20;99.90
13848;DHT22;6994;49.752;6.094;2023-04-01T12:45:23;14.10;99.90
13848;DHT22;6994;49.752;6.094;2023-04-01T12:48:06;14.10;99.90
13848;DHT22;6994;49.752;6.094;2023-04-01T12:55:51;13.60;99.90
13848;DHT22;6994;49.752;6.094;2023-04-01T12:58:44;13.50;99.90
13848;DHT22;6994;49.752;6.094;2023-04-01T13:10:20;14.10;99.90
13848;DHT22;6994;49.752;6.094;2023-04-01T13:15:32;13.90;99.90
13848;DHT22;6994;49.752;6.094;2023-04-01T13:20:44;13.70;99.90
13848;DHT22;6994;49.752;6.094;2023-04-01T13:26:17;13.60;99.90
13848;DHT22;6994;49.752;6.094;2023-04-01T13:31:29;13.40;99.90
13848;DHT22;6994;49.752;6.094;2023-04-01T13:34:21;13.20;99.90
13848;DHT22;6994;49.752;6.094;2023-04-01T13:40:36;12.90;99.90
13848;DHT22;6994;49.752;6.094;2023-04-01T13:42:25;12.70;99.90
13848;DHT22;6994;49.752;6.094;2023-04-01T13:45:00;12.40;99.90
13848;DHT22;6994;49.752;6.094;2023-04-01T13:55:30;11.80;99.90
13848;DHT22;6994;49.752;6.094;2023-04-01T14:03:27;11.50;99.90
13848;DHT22;6994;49.752;6.094;2023-04-01T14:08:36;11.60;99.90
13848;DHT22;6994;49.752;6.094;2023-04-01T14:13:52;11.50;99.90
13848;DHT22;6994;49.752;6.094;2023-04-01T14:22:25;11.40;99.90
13848;DHT22;6994;49.752;6.094;2023-04-01T14:24:52;11.40;99.90
13848;DHT22;6994;49.752;6.094;2023-04-01T14:30:04;11.50;99.90
13848;DHT22;6994;49.752;6.094;2023-04-01T14:33:03;11.60;99.90
13848;DHT22;6994;49.752;6.094;2023-04-01T14:35:38;11.60;99.90
13848;DHT22;6994;49.752;6.094;2023-04-01T14:46:08;12.70;99.90
13848;DHT22;6994;49.752;6.094;2023-04-01T14:48:49;12.90;99.90
13848;DHT22;6994;49.752;6.094;2023-04-01T14:51:16;12.90;99.90
13848;DHT22;6994;49.752;6.094;2023-04-01T14:56:12;13.00;99.90
13848;DHT22;6994;49.752;6.094;2023-04-01T14:58:43;13.00;99.90
13848;DHT22;6994;49.752;6.094;2023-04-01T15:04:03;13.30;99.90
13848;DHT22;6994;49.752;6.094;2023-04-01T15:06:30;13.20;99.90
13848;DHT22;6994;49.752;6.094;2023-04-01T15:13:58;12.70;99.90
13848;DHT22;6994;49.752;6.094;2023-04-01T15:16:45;12.50;99.90
13848;DHT22;6994;49.752;6.094;2023-04-01T15:22:08;12.00;99.90
13848;DHT22;6994;49.752;6.094;2023-04-01T15:24:45;11.80;99.90
13848;DHT22;6994;49.752;6.094;2023-04-01T15:29:43;11.40;99.90
13848;DHT22;6994;49.752;6.094;2023-04-01T15:37:23;11.10;99.90
13848;DHT22;6994;49.752;6.094;2023-04-01T15:45:08;11.20;99.90
13848;DHT22;6994;49.752;6.094;2023-04-01T15:47:42;11.20;99.90
13848;DHT22;6994;49.752;6.094;2023-04-01T15:56:08;11.40;99.90
13848;DHT22;6994;49.752;6.094;2023-04-01T16:01:44;11.30;99.90
13848;DHT22;6994;49.752;6.094;2023-04-01T16:09:39;11.20;99.90
13848;DHT22;6994;49.752;6.094;2023-04-01T16:15:15;11.00;99.90
13848;DHT22;6994;49.752;6.094;2023-04-01T16:18:00;10.90;99.90
13848;DHT22;6994;49.752;6.094;2023-04-01T16:20:44;10.80;99.90
13848;DHT22;6994;49.752;6.094;2023-04-01T16:23:20;10.80;99.90
13848;DHT22;6994;49.752;6.094;2023-04-01T16:25:49;10.70;99.90
13848;DHT22;6994;49.752;6.094;2023-04-01T16:33:40;10.80;99.90
13848;DHT22;6994;49.752;6.094;2023-04-01T16:38:43;11.10;99.90
13848;DHT22;6994;49.752;6.094;2023-04-01T16:41:29;11.10;99.90
13848;DHT22;6994;49.752;6.094;2023-04-01T16:43:55;11.00;99.90
13848;DHT22;6994;49.752;6.094;2023-04-01T16:51:30;11.10;99.90
13848;DHT22;6994;49.752;6.094;2023-04-01T16:54:00;11.00;99.90
13848;DHT22;6994;49.752;6.094;2023-04-01T16:56:24;10.90;99.90
13848;DHT22;6994;49.752;6.094;2023-04-01T17:01:53;10.70;99.90
13848;DHT22;6994;49.752;6.094;2023-04-01T17:04:25;10.80;99.90
13848;DHT22;6994;49.752;6.094;2023-04-01T17:06:53;10.70;99.90
13848;DHT22;6994;49.752;6.094;2023-04-01T17:12:34;10.70;99.90
13848;DHT22;6994;49.752;6.094;2023-04-01T17:15:16;10.60;99.90
13848;DHT22;6994;49.752;6.094;2023-04-01T17:17:45;10.60;99.90
13848;DHT22;6994;49.752;6.094;2023-04-01T17:20:36;10.80;99.90
13848;DHT22;6994;49.752;6.094;2023-04-01T17:31:37;10.70;99.90
13848;DHT22;6994;49.752;6.094;2023-04-01T17:34:06;10.70;99.90
13848;DHT22;6994;49.752;6.094;2023-04-01T17:41:47;10.60;99.90
13848;DHT22;6994;49.752;6.094;2023-04-01T17:44:16;10.60;99.90
13848;DHT22;6994;49.752;6.094;2023-04-01T17:47:06;10.60;99.90
13848;DHT22;6994;49.752;6.094;2023-04-01T17:49:47;10.60;99.90
13848;DHT22;6994;49.752;6.094;2023-04-01T17:52:31;10.60;99.90
13848;DHT22;6994;49.752;6.094;2023-04-01T17:57:55;10.50;99.90
13848;DHT22;6994;49.752;6.094;2023-04-01T18:00:48;10.50;99.90
13848;DHT22;6994;49.752;6.094;2023-04-01T18:05:43;10.60;99.90
13848;DHT22;6994;49.752;6.094;2023-04-01T18:08:23;10.70;99.90
13848;DHT22;6994;49.752;6.094;2023-04-01T18:11:21;10.70;99.90
13848;DHT22;6994;49.752;6.094;2023-04-01T18:13:51;10.80;99.90
13848;DHT22;6994;49.752;6.094;2023-04-01T18:16:28;10.80;99.90
13848;DHT22;6994;49.752;6.094;2023-04-01T18:19:09;10.70;99.90
13848;DHT22;6994;49.752;6.094;2023-04-01T18:21:40;10.50;99.90
13848;DHT22;6994;49.752;6.094;2023-04-01T18:24:11;10.50;99.90
13848;DHT22;6994;49.752;6.094;2023-04-01T18:26:34;10.30;99.90
13848;DHT22;6994;49.752;6.094;2023-04-01T18:32:01;10.10;99.90
13848;DHT22;6994;49.752;6.094;2023-04-01T18:34:52;10.10;99.90
13848;DHT22;6994;49.752;6.094;2023-04-01T18:37:28;10.10;99.90
13848;DHT22;6994;49.752;6.094;2023-04-01T18:39:55;10.00;99.90
13848;DHT22;6994;49.752;6.094;2023-04-01T18:42:50;9.90;99.90
13848;DHT22;6994;49.752;6.094;2023-04-01T18:45:28;9.90;99.90
13848;DHT22;6994;49.752;6.094;2023-04-01T18:47:56;9.80;99.90
13848;DHT22;6994;49.752;6.094;2023-04-01T18:50:30;9.70;99.90
13848;DHT22;6994;49.752;6.094;2023-04-01T18:53:14;9.70;99.90
13848;DHT22;6994;49.752;6.094;2023-04-01T18:55:39;9.60;99.90
13848;DHT22;6994;49.752;6.094;2023-04-01T18:58:28;9.50;99.90
13848;DHT22;6994;49.752;6.094;2023-04-01T19:03:34;9.40;99.90
13848;DHT22;6994;49.752;6.094;2023-04-01T19:06:00;9.30;99.90
13848;DHT22;6994;49.752;6.094;2023-04-01T19:08:28;9.30;99.90
13848;DHT22;6994;49.752;6.094;2023-04-01T19:24:32;9.40;99.90
13848;DHT22;6994;49.752;6.094;2023-04-01T19:27:14;9.50;99.90
13848;DHT22;6994;49.752;6.094;2023-04-01T19:37:44;9.40;99.90
13848;DHT22;6994;49.752;6.094;2023-04-01T19:40:28;9.30;99.90
13848;DHT22;6994;49.752;6.094;2023-04-01T19:45:43;9.10;99.90
13848;DHT22;6994;49.752;6.094;2023-04-01T19:56:05;9.00;99.90
13848;DHT22;6994;49.752;6.094;2023-04-01T19:58:32;8.80;99.90
13848;DHT22;6994;49.752;6.094;2023-04-01T20:00:58;8.80;99.90
13848;DHT22;6994;49.752;6.094;2023-04-01T20:06:23;9.10;99.90
13848;DHT22;6994;49.752;6.094;2023-04-01T20:11:43;9.30;99.90
13848;DHT22;6994;49.752;6.094;2023-04-01T20:17:15;9.80;99.90
13848;DHT22;6994;49.752;6.094;2023-04-01T20:19:45;10.10;99.90
13848;DHT22;6994;49.752;6.094;2023-04-01T20:22:25;10.00;99.90
13848;DHT22;6994;49.752;6.094;2023-04-01T20:24:50;10.20;99.90
13848;DHT22;6994;49.752;6.094;2023-04-01T20:27:18;10.10;99.90
13848;DHT22;6994;49.752;6.094;2023-04-01T20:32:53;9.90;99.90
13848;DHT22;6994;49.752;6.094;2023-04-01T20:35:37;9.80;99.90
13848;DHT22;6994;49.752;6.094;2023-04-01T20:38:15;9.70;99.90
13848;DHT22;6994;49.752;6.094;2023-04-01T20:41:20;9.60;99.90
13848;DHT22;6994;49.752;6.094;2023-04-01T20:43:43;9.60;99.90
13848;DHT22;6994;49.752;6.094;2023-04-01T20:48:50;9.80;99.90
13848;DHT22;6994;49.752;6.094;2023-04-01T20:51:14;9.90;99.90
13848;DHT22;6994;49.752;6.094;2023-04-01T20:53:48;9.80;99.90
13848;DHT22;6994;49.752;6.094;2023-04-01T20:56:41;9.80;99.90
13848;DHT22;6994;49.752;6.094;2023-04-01T21:01:54;9.90;99.90
13848;DHT22;6994;49.752;6.094;2023-04-01T21:04:27;9.90;99.90
13848;DHT22;6994;49.752;6.094;2023-04-01T21:07:08;10.10;99.90
13848;DHT22;6994;49.752;6.094;2023-04-01T21:09:38;10.10;99.90
13848;DHT22;6994;49.752;6.094;2023-04-01T21:12:09;10.00;99.90
13848;DHT22;6994;49.752;6.094;2023-04-01T21:17:22;9.80;99.90
13848;DHT22;6994;49.752;6.094;2023-04-01T21:22:46;9.80;99.90
13848;DHT22;6994;49.752;6.094;2023-04-01T21:25:54;9.70;99.90
13848;DHT22;6994;49.752;6.094;2023-04-01T21:33:41;9.60;99.90
13848;DHT22;6994;49.752;6.094;2023-04-01T21:36:39;9.60;99.90
13848;DHT22;6994;49.752;6.094;2023-04-01T21:42:03;9.50;99.90
13848;DHT22;6994;49.752;6.094;2023-04-01T21:44:54;9.50;99.90
13848;DHT22;6994;49.752;6.094;2023-04-01T21:50:05;9.60;99.90
13848;DHT22;6994;49.752;6.094;2023-04-01T21:53:44;9.80;99.90
13848;DHT22;6994;49.752;6.094;2023-04-01T22:06:44;9.50;99.90
13848;DHT22;6994;49.752;6.094;2023-04-01T22:09:13;9.40;99.90
13848;DHT22;6994;49.752;6.094;2023-04-01T22:11:51;9.30;99.90
13848;DHT22;6994;49.752;6.094;2023-04-01T22:17:10;9.30;99.90
13848;DHT22;6994;49.752;6.094;2023-04-01T22:22:25;9.30;99.90
13848;DHT22;6994;49.752;6.094;2023-04-01T22:24:55;9.20;99.90
13848;DHT22;6994;49.752;6.094;2023-04-01T22:27:46;9.10;99.90
13848;DHT22;6994;49.752;6.094;2023-04-01T22:30:17;9.10;99.90
13848;DHT22;6994;49.752;6.094;2023-04-01T22:32:47;9.30;99.90
13848;DHT22;6994;49.752;6.094;2023-04-01T22:35:35;9.30;99.90
13848;DHT22;6994;49.752;6.094;2023-04-01T22:37:53;9.30;99.90
13848;DHT22;6994;49.752;6.094;2023-04-01T22:40:33;9.40;99.90
13848;DHT22;6994;49.752;6.094;2023-04-01T22:43:07;9.40;99.90
13848;DHT22;6994;49.752;6.094;2023-04-01T22:50:40;9.20;99.90
13848;DHT22;6994;49.752;6.094;2023-04-01T22:55:46;9.20;99.90
13848;DHT22;6994;49.752;6.094;2023-04-01T22:58:21;9.20;99.90
13848;DHT22;6994;49.752;6.094;2023-04-01T23:00:51;9.20;99.90
13848;DHT22;6994;49.752;6.094;2023-04-01T23:03:36;9.10;99.90
13848;DHT22;6994;49.752;6.094;2023-04-01T23:06:00;9.10;99.90
13848;DHT22;6994;49.752;6.094;2023-04-01T23:08:59;9.00;99.90
13848;DHT22;6994;49.752;6.094;2023-04-01T23:11:43;9.00;99.90
13848;DHT22;6994;49.752;6.094;2023-04-01T23:17:07;8.90;99.90
13848;DHT22;6994;49.752;6.094;2023-04-01T23:27:24;8.70;99.90
13848;DHT22;6994;49.752;6.094;2023-04-01T23:29:45;8.70;99.90
13848;DHT22;6994;49.752;6.094;2023-04-01T23:32:16;8.70;99.90
13848;DHT22;6994;49.752;6.094;2023-04-01T23:34:49;8.70;99.90
13848;DHT22;6994;49.752;6.094;2023-04-01T23:37:13;8.70;99.90
13848;DHT22;6994;49.752;6.094;2023-04-01T23:39:44;8.70;99.90
13848;DHT22;6994;49.752;6.094;2023-04-01T23:42:14;8.70;99.90
13848;DHT22;6994;49.752;6.094;2023-04-01T23:44:40;8.70;99.90
13848;DHT22;6994;49.752;6.094;2023-04-01T23:47:08;8.90;99.90
13848;DHT22;6994;49.752;6.094;2023-04-01T23:49:36;8.90;99.90
13848;DHT22;6994;49.752;6.094;2023-04-01T23:52:16;8.90;99.90
13848;DHT22;6994;49.752;6.094;2023-04-01T23:54:47;8.90;99.90